Newton, NC

4:46 PM EDT on July 07, 2015 (GMT -0400)
Cambridge Place Townhomes-Thornburg Drive, Conover | | Change Station
CLOSE
Current Station
Personal Weather Station
Location: Conover, NC
Elevation: 1017 ft
Nearby Weather Stations

Elev 1017 ft 35.71 °N, 81.20 °W | Updated 10 minutes ago

Partly Cloudy
Partly Cloudy
95.7 °F
Feels Like 96 °F
N
2.7
Wind Variable Wind from SSW

Today
High -- | Low -- °F
--% Chance of Precip.
Yesterday
High -- | Low -- °F
Precip. -- in
6:15 AM 8:43 PM
Waning Gibbous, 61% visible
Pressure 30.03 in
Visibility 10.0 miles
Clouds Few 8000 ft
Heat Index 96 °F
Dew Point 60 °F
Humidity 31%
Rainfall 0.00 in
Snow Depth Not available.
UV 8 out of 12
Pollen 2.60 out of 12
Air Quality Not available.
Flu Activity Not available.
METAR KHKY 071953Z AUTO 21008G14KT 10SM FEW080 32/16 A3010 RMK AO2 SLP167 T03170156

More Conditions Fewer Conditions

Pressure 30.03 in
Visibility 10.0 miles
Clouds Few 8000 ft
Heat Index 96 °F
Dew Point 60 °F
Humidity 31%
Rainfall 0.00 in
Snow Depth Not available.
UV 8 out of 12
Pollen 2.60 out of 12
Air Quality Not available.
Flu Activity Not available.
METAR KHKY 071953Z AUTO 21008G14KT 10SM FEW080 32/16 A3010 RMK AO2 SLP167 T03170156

More Conditions Fewer Conditions

10-Day Weather Forecast

×

Almanac

Astronomy

Jul. 07, 2015 Rise Set
Actual Time
Civil Twilight
Nautical Twilight
Astronomical Twilight
Moon
Length of Visible Light
Length of Day
Tomorrow will be .
, % of the Moon is Illuminated

Today's Extremes

State Highs State Lows

Community

WunderPhotos

Upload Photos

1,835,890 photos uploaded!

WunderBlogs® & News

Nearby

Air Quality

  Air Quality AQ Index Pollutant
Not available.

Snow Depth

Station Depth Elevation

Earthquake Activity

City Distance Mag. Time & Date
Minimum magnitude displayed is 2.5.

Coastal Water Temperatures

Place Temperature

Stations

Nearby Weather Stations

Station Location Temp. Windchill Dew Point Humidity Wind Precip. Elev Updated Type